Time;durP1;ratioP1;P1;durP2;ratioP2;P2;SDS_P1;SDS_P2;PMS_P1;PMS_P2;Temp;Humidity;BMP_temperature;BMP_pressure;BME280_temperature;BME280_humidity;BME280_pressure;Samples;Min_cycle;Max_cycle;Signal;HPM_P1;HPM_P2
2022/09/09 00:02:04;;;;;;;4.08;2.20;;;;;;;17.85;100.00;99822.89;2735835;86;21023;-86
2022/09/09 00:06:11;;;;;;;4.12;1.95;;;;;;;17.85;100.00;99819.38;2739155;86;21040;-86
2022/09/09 00:10:36;;;;;;;7.85;3.33;;;;;;;17.80;100.00;99818.58;2725627;85;21027;-86
2022/09/09 00:14:48;;;;;;;2.58;1.95;;;;;;;17.78;100.00;99820.63;2757515;84;21822;-86
2022/09/09 00:19:16;;;;;;;3.12;2.35;;;;;;;17.78;100.00;99827.34;2741282;84;21623;-86
2022/09/09 00:23:30;;;;;;;3.05;2.50;;;;;;;17.73;100.00;99828.42;2755574;85;21050;-85
2022/09/09 00:27:47;;;;;;;2.45;2.25;;;;;;;17.65;100.00;99829.83;2703530;87;21138;-85
2022/09/09 00:31:52;;;;;;;1.98;1.77;;;;;;;17.61;100.00;99823.16;2757716;84;21592;-86
2022/09/09 00:35:58;;;;;;;4.33;1.67;;;;;;;17.59;100.00;99827.88;2730454;85;21007;-86
2022/09/09 00:40:05;;;;;;;2.80;1.87;;;;;;;17.56;100.00;99825.04;2732666;85;21181;-85
2022/09/09 00:44:29;;;;;;;1.85;1.62;;;;;;;17.52;100.00;99827.77;2762368;85;21558;-86
2022/09/09 00:48:57;;;;;;;2.47;1.55;;;;;;;17.49;100.00;99824.95;2763779;84;21099;-86
2022/09/09 00:53:30;;;;;;;6.17;2.33;;;;;;;17.45;100.00;99822.81;2753155;84;21010;-86
2022/09/09 00:57:35;;;;;;;2.52;1.70;;;;;;;17.40;100.00;99826.03;2732012;84;21036;-86
2022/09/09 01:01:37;;;;;;;1.80;1.70;;;;;;;17.32;100.00;99823.44;2737711;84;21067;-86
2022/09/09 01:06:04;;;;;;;3.35;1.80;;;;;;;17.24;100.00;99835.91;2756867;85;21059;-86
2022/09/09 01:10:31;;;;;;;3.25;1.90;;;;;;;17.19;100.00;99837.45;2742213;85;21007;-85
2022/09/09 01:14:50;;;;;;;1.82;1.35;;;;;;;17.13;100.00;99846.58;2723666;84;21385;-86
2022/09/09 01:18:54;;;;;;;2.08;1.87;;;;;;;17.10;100.00;99836.72;2732344;85;21437;-86
2022/09/09 01:23:40;;;;;;;3.22;1.90;;;;;;;17.09;100.00;99845.27;2737990;85;21073;-85
2022/09/09 01:27:44;;;;;;;2.00;1.72;;;;;;;17.07;100.00;99839.73;2736625;85;21719;-85
2022/09/09 01:32:02;;;;;;;3.02;1.70;;;;;;;17.01;100.00;99855.23;2718031;85;21023;-86
2022/09/09 01:36:08;;;;;;;2.55;2.08;;;;;;;16.89;100.00;99849.41;2738916;85;21060;-85
2022/09/09 01:40:09;;;;;;;3.22;2.22;;;;;;;16.79;100.00;99854.48;2744757;85;21968;-85
2022/09/09 01:44:11;;;;;;;5.50;2.00;;;;;;;16.73;100.00;99850.36;2750587;85;21055;-84
2022/09/09 01:48:13;;;;;;;2.40;1.67;;;;;;;16.72;100.00;99853.53;2753891;84;20992;-85
2022/09/09 01:52:14;;;;;;;6.40;2.02;;;;;;;16.70;100.00;99860.94;2712524;85;21067;-85
2022/09/09 01:56:41;;;;;;;2.22;1.62;;;;;;;16.70;100.00;99861.78;2760058;85;20984;-85
2022/09/09 02:00:54;;;;;;;3.25;1.90;;;;;;;16.67;100.00;99859.42;2735479;85;21051;-85
2022/09/09 02:05:10;;;;;;;2.40;1.77;;;;;;;16.66;100.00;99863.13;2738301;84;21563;-85
2022/09/09 02:09:15;;;;;;;1.87;1.47;;;;;;;16.57;100.00;99864.20;2745784;85;21011;-85
2022/09/09 02:13:22;;;;;;;3.30;2.00;;;;;;;16.56;100.00;99855.81;2763196;85;21055;-85
2022/09/09 02:17:28;;;;;;;1.50;1.27;;;;;;;16.56;100.00;99863.34;2743186;84;21082;-84
2022/09/09 02:21:31;;;;;;;3.92;2.22;;;;;;;16.58;100.00;99869.90;2781297;84;21055;-85
2022/09/09 02:25:35;;;;;;;3.40;1.92;;;;;;;16.59;100.00;99863.52;2776800;83;21047;-85
2022/09/09 02:29:44;;;;;;;1.65;1.55;;;;;;;16.62;100.00;99861.81;2760150;84;21077;-85
2022/09/09 02:33:54;;;;;;;5.72;1.67;;;;;;;16.62;100.00;99863.68;2781716;84;21062;-86
2022/09/09 02:38:01;;;;;;;3.50;1.90;;;;;;;16.63;100.00;99873.41;2769122;85;21542;-85
2022/09/09 02:42:04;;;;;;;9.18;1.50;;;;;;;16.65;100.00;99869.52;2780415;84;21584;-86
2022/09/09 02:46:14;;;;;;;1.75;1.65;;;;;;;16.70;100.00;99879.24;2791186;83;21071;-86
2022/09/09 02:50:21;;;;;;;1.85;1.72;;;;;;;16.74;100.00;99869.48;2741834;84;21014;-86
2022/09/09 02:54:33;;;;;;;4.47;1.82;;;;;;;16.76;100.00;99873.64;2770474;84;21061;-86
2022/09/09 02:58:36;;;;;;;3.95;2.00;;;;;;;16.76;100.00;99878.20;2761631;84;21065;-85
2022/09/09 03:02:38;;;;;;;3.90;1.47;;;;;;;16.73;100.00;99885.27;2765085;84;20998;-86
2022/09/09 03:06:39;;;;;;;5.17;1.50;;;;;;;16.65;100.00;99885.63;2761561;85;21015;-86
2022/09/09 03:10:41;;;;;;;4.10;1.95;;;;;;;16.61;100.00;99881.63;2761700;84;21057;-86
2022/09/09 03:14:45;;;;;;;3.37;1.98;;;;;;;16.65;100.00;99885.63;2760616;84;21081;-86
2022/09/09 03:18:45;;;;;;;1.35;1.25;;;;;;;16.64;100.00;99885.30;2748898;84;21110;-87
2022/09/09 03:22:46;;;;;;;2.37;2.00;;;;;;;16.61;100.00;99886.17;2733375;85;21743;-87
2022/09/09 03:26:50;;;;;;;2.35;1.65;;;;;;;16.61;100.00;99886.99;2737810;85;21038;-87
2022/09/09 03:30:51;;;;;;;1.98;1.75;;;;;;;16.61;100.00;99888.33;2737581;86;21085;-87
2022/09/09 03:34:53;;;;;;;3.05;1.50;;;;;;;16.56;100.00;99890.72;2680803;88;21039;-87
2022/09/09 03:38:55;;;;;;;3.33;1.62;;;;;;;16.48;100.00;99881.34;2730770;85;21589;-87
2022/09/09 03:42:56;;;;;;;8.45;2.42;;;;;;;16.39;100.00;99884.06;2735417;86;21032;-87
2022/09/09 03:47:00;;;;;;;4.08;2.00;;;;;;;16.30;100.00;99888.30;2739612;85;21030;-86
2022/09/09 03:51:02;;;;;;;1.20;1.10;;;;;;;16.22;100.00;99884.64;2729744;85;21120;-87
2022/09/09 03:55:05;;;;;;;2.98;1.70;;;;;;;16.19;100.00;99882.28;2667631;87;21771;-87
2022/09/09 03:59:08;;;;;;;2.15;1.50;;;;;;;16.16;100.00;99888.00;2698218;86;21063;-87
2022/09/09 04:03:10;;;;;;;2.55;1.35;;;;;;;16.08;100.00;99891.53;2786093;83;21027;-85
2022/09/09 04:07:11;;;;;;;3.42;1.30;;;;;;;16.07;100.00;99901.94;2755908;84;21052;-88
2022/09/09 04:11:12;;;;;;;1.90;1.65;;;;;;;16.06;100.00;99908.83;2736530;85;21063;-87
2022/09/09 04:15:14;;;;;;;2.58;1.35;;;;;;;16.10;100.00;99901.59;2729089;85;20996;-87
2022/09/09 04:19:15;;;;;;;1.98;1.45;;;;;;;16.19;100.00;99904.27;2746434;85;21081;-86
2022/09/09 04:23:20;;;;;;;2.35;2.05;;;;;;;16.25;100.00;99903.57;2761154;84;21039;-86
2022/09/09 04:27:22;;;;;;;2.33;1.45;;;;;;;16.30;100.00;99910.59;2770726;83;21066;-88
2022/09/09 04:31:23;;;;;;;2.62;1.82;;;;;;;16.36;100.00;99916.63;2801081;83;21078;-86
2022/09/09 04:35:24;;;;;;;3.58;2.05;;;;;;;16.37;100.00;99913.42;2771574;83;21660;-86
2022/09/09 04:39:26;;;;;;;1.92;1.75;;;;;;;16.38;100.00;99917.30;2731075;84;21093;-86
2022/09/09 04:43:27;;;;;;;1.90;1.37;;;;;;;16.38;100.00;99925.34;2772312;84;21090;-87
2022/09/09 04:47:28;;;;;;;3.35;1.57;;;;;;;16.42;100.00;99923.98;2762863;84;21046;-87
2022/09/09 04:51:31;;;;;;;2.62;1.72;;;;;;;16.99;100.00;99924.77;2796336;83;21038;-87
2022/09/09 04:55:34;;;;;;;3.65;1.40;;;;;;;17.85;100.00;99917.05;2774919;84;21621;-87
2022/09/09 04:59:35;;;;;;;1.72;1.00;;;;;;;18.59;100.00;99917.30;2767841;84;21112;-85
2022/09/09 05:03:37;;;;;;;2.50;1.12;;;;;;;19.29;100.00;99925.48;2713389;85;20979;-87
2022/09/09 05:07:38;;;;;;;2.55;1.12;;;;;;;19.96;100.00;99919.33;2755460;85;21006;-88
2022/09/09 05:11:40;;;;;;;1.32;0.93;;;;;;;20.49;100.00;99917.99;2715903;85;21086;-88
2022/09/09 05:15:43;;;;;;;1.72;1.00;;;;;;;21.02;100.00;99916.54;2753801;85;21077;-88
2022/09/09 05:19:44;;;;;;;1.77;0.93;;;;;;;21.48;96.86;99925.28;2739766;85;21070;-89
2022/09/09 05:23:46;;;;;;;1.57;1.45;;;;;;;21.97;96.32;99929.99;2757318;84;21048;-89
2022/09/09 05:27:47;;;;;;;1.62;0.80;;;;;;;22.35;89.96;99931.16;2701954;86;21068;-89
2022/09/09 05:31:48;;;;;;;2.37;0.98;;;;;;;22.64;85.97;99933.09;2745034;85;21008;-88
2022/09/09 05:35:56;;;;;;;7.92;2.25;;;;;;;22.90;83.37;99925.88;2734631;85;21031;-90
2022/09/09 05:39:57;;;;;;;2.15;0.85;;;;;;;23.15;82.65;99929.72;2753921;84;21064;-89
2022/09/09 05:44:00;;;;;;;1.15;0.82;;;;;;;23.43;81.48;99928.52;2728579;85;21082;-90
2022/09/09 05:48:02;;;;;;;1.42;1.32;;;;;;;23.65;77.58;99933.88;2748759;85;21087;-89
2022/09/09 05:52:03;;;;;;;1.42;1.25;;;;;;;23.77;75.45;99933.17;2732822;85;21035;-90
2022/09/09 05:56:10;;;;;;;3.05;0.78;;;;;;;23.95;75.71;99929.66;2725308;86;21168;-89
2022/09/09 06:00:14;;;;;;;3.85;1.50;;;;;;;23.97;73.40;99930.26;2781361;84;21117;-90
2022/09/09 06:04:16;;;;;;;2.98;1.22;;;;;;;24.01;74.66;99932.02;2770147;84;21000;-88
2022/09/09 06:08:17;;;;;;;3.42;1.67;;;;;;;23.94;73.13;99927.48;2756891;85;21530;-90
2022/09/09 06:12:18;;;;;;;2.20;1.50;;;;;;;23.96;73.01;99935.39;2767989;85;21070;-90
2022/09/09 06:16:26;;;;;;;3.80;1.27;;;;;;;23.90;73.41;99933.58;2708576;85;21015;-91
2022/09/09 06:20:30;;;;;;;2.72;1.52;;;;;;;23.76;74.74;99926.89;2747367;83;21055;-90
2022/09/09 06:24:30;;;;;;;3.62;1.80;;;;;;;23.78;75.61;99924.81;2752156;85;21020;-90
2022/09/09 06:28:34;;;;;;;1.12;1.02;;;;;;;23.49;74.92;99927.66;2739953;85;21016;-89
2022/09/09 06:32:36;;;;;;;3.95;1.47;;;;;;;23.03;75.46;99924.16;2756000;85;21098;-90
2022/09/09 06:36:39;;;;;;;2.40;1.50;;;;;;;22.60;77.63;99920.18;2749701;85;21362;-91
2022/09/09 06:40:41;;;;;;;2.80;1.57;;;;;;;22.28;79.41;99924.94;2752671;85;21098;-91
2022/09/09 06:44:42;;;;;;;1.82;1.52;;;;;;;22.06;81.57;99929.25;2744474;85;21046;-88
2022/09/09 06:48:44;;;;;;;3.05;2.20;;;;;;;21.99;83.31;99931.66;2758734;85;21586;-89
2022/09/09 06:52:52;;;;;;;2.83;2.30;;;;;;;21.97;83.96;99929.14;2755449;85;29239;-89
2022/09/09 06:56:50;;;;;;;2.05;1.57;;;;;;;22.08;84.68;99929.88;2736461;85;21088;-90
2022/09/09 07:00:52;;;;;;;2.45;1.65;;;;;;;22.11;83.18;99935.40;2745001;85;21086;-90
2022/09/09 07:04:54;;;;;;;4.25;2.72;;;;;;;22.09;86.27;99941.02;2749678;85;21051;-89
2022/09/09 07:09:03;;;;;;;2.92;2.25;;;;;;;22.15;85.71;99945.27;2771380;84;21115;-89
2022/09/09 07:13:05;;;;;;;3.25;2.92;;;;;;;22.09;85.59;99945.08;2734709;85;21075;-90
2022/09/09 07:17:07;;;;;;;6.35;2.47;;;;;;;22.20;84.52;99940.05;2756772;85;21118;-90
2022/09/09 07:21:11;;;;;;;1.75;1.55;;;;;;;22.28;84.04;99931.70;2732294;85;21038;-90
2022/09/09 07:25:14;;;;;;;2.05;1.62;;;;;;;22.35;83.80;99927.09;2724314;86;21078;-90
2022/09/09 07:29:15;;;;;;;3.47;2.30;;;;;;;22.35;83.66;99937.94;2693057;87;21034;-89
2022/09/09 07:33:17;;;;;;;2.95;2.12;;;;;;;22.70;85.11;99941.41;2694354;87;21038;-89
2022/09/09 07:37:18;;;;;;;5.28;2.45;;;;;;;23.11;83.97;99940.17;2724863;87;21011;-90
2022/09/09 07:41:32;;;;;;;3.33;2.75;;;;;;;23.38;80.58;99942.23;2720169;85;21122;-89
2022/09/09 07:45:35;;;;;;;3.02;2.35;;;;;;;23.38;79.11;99942.73;2715507;87;21415;-89
2022/09/09 07:49:37;;;;;;;6.58;2.52;;;;;;;23.43;79.80;99948.36;2665467;85;21070;-90
2022/09/09 07:53:39;;;;;;;2.35;2.02;;;;;;;23.52;78.27;99952.45;2712351;87;22733;-89
2022/09/09 07:57:41;;;;;;;3.65;1.62;;;;;;;23.31;77.55;99960.44;2725395;85;21082;-89
2022/09/09 08:01:46;;;;;;;2.98;2.20;;;;;;;23.09;79.56;99958.03;2726343;87;21047;-90
2022/09/09 08:05:47;;;;;;;3.95;1.65;;;;;;;23.07;79.00;99959.29;2707239;87;21055;-88
2022/09/09 08:09:49;;;;;;;1.37;1.27;;;;;;;23.06;79.54;99957.63;2685630;87;21082;-90
2022/09/09 08:13:52;;;;;;;10.32;1.72;;;;;;;23.00;80.00;99959.31;2708041;87;21027;-89
2022/09/09 08:17:53;;;;;;;2.87;2.12;;;;;;;22.93;80.08;99951.75;2695743;87;21116;-89
2022/09/09 08:21:55;;;;;;;6.05;2.00;;;;;;;23.00;78.33;99955.79;2729659;84;21047;-89
2022/09/09 08:26:04;;;;;;;3.33;2.00;;;;;;;23.09;80.89;99962.10;2731585;85;21534;-89
2022/09/09 08:30:06;;;;;;;2.15;1.47;;;;;;;23.28;79.87;99962.75;2740191;85;21043;-90
2022/09/09 08:34:09;;;;;;;1.75;1.15;;;;;;;23.25;80.08;99960.78;2758610;84;21046;-89
2022/09/09 08:38:10;;;;;;;1.98;1.85;;;;;;;23.43;80.00;99962.44;2735718;85;21090;-89
2022/09/09 08:42:23;;;;;;;4.40;2.33;;;;;;;23.72;79.17;99969.66;2706848;85;21178;-90
2022/09/09 08:46:39;;;;;;;6.22;2.30;;;;;;;23.97;79.29;99969.64;2749712;84;21581;-89
2022/09/09 08:50:43;;;;;;;4.42;1.40;;;;;;;24.03;77.83;99970.16;2760646;85;21531;-90
2022/09/09 08:54:46;;;;;;;3.37;2.00;;;;;;;24.04;72.44;99979.13;2742054;84;21051;-89
2022/09/09 08:58:50;;;;;;;3.27;1.85;;;;;;;24.28;78.25;99980.16;2769015;85;21535;-90
2022/09/09 09:03:12;;;;;;;2.55;1.45;;;;;;;24.47;77.25;99982.91;2756752;85;21063;-90
2022/09/09 09:07:46;;;;;;;3.58;1.45;;;;;;;24.57;73.52;99975.58;2751954;82;21055;-90
2022/09/09 09:12:02;;;;;;;1.52;1.07;;;;;;;24.64;72.88;99982.61;2740704;85;21082;-89
2022/09/09 09:16:12;;;;;;;2.20;1.50;;;;;;;24.49;69.84;99981.63;2732636;85;20995;-90
2022/09/09 09:20:18;;;;;;;2.27;1.32;;;;;;;24.22;69.80;99974.28;2776002;84;22050;-90
2022/09/09 09:24:24;;;;;;;1.98;1.00;;;;;;;24.24;74.13;99976.23;2767020;84;21602;-89
2022/09/09 09:28:30;;;;;;;4.65;1.65;;;;;;;24.28;73.24;99973.91;2787144;83;21070;-89
2022/09/09 09:32:35;;;;;;;2.47;1.15;;;;;;;24.45;73.95;99980.94;2777616;84;21093;-90
2022/09/09 09:36:54;;;;;;;2.15;1.42;;;;;;;24.68;71.34;99975.66;2768110;84;21061;-89
2022/09/09 09:40:59;;;;;;;1.35;1.05;;;;;;;24.74;69.47;99971.72;2792791;84;21077;-88
2022/09/09 09:45:28;;;;;;;4.33;1.22;;;;;;;24.62;68.87;99965.70;2756796;84;21547;-89
2022/09/09 09:49:29;;;;;;;3.17;0.70;;;;;;;24.57;70.13;99979.66;2761104;84;21060;-90
2022/09/09 09:53:34;;;;;;;1.45;1.00;;;;;;;24.60;72.16;99975.97;2766900;84;21034;-89
2022/09/09 09:57:36;;;;;;;3.20;0.90;;;;;;;24.53;70.31;99967.04;2768193;83;21010;-90
2022/09/09 10:01:37;;;;;;;1.82;1.17;;;;;;;24.70;73.26;99974.59;2779565;84;21046;-90
2022/09/09 10:05:44;;;;;;;3.20;1.52;;;;;;;24.77;72.14;99982.20;2787822;84;21082;-89
2022/09/09 10:09:53;;;;;;;1.22;0.80;;;;;;;25.02;71.37;99990.77;2782634;84;21078;-90
2022/09/09 10:14:12;;;;;;;2.77;1.07;;;;;;;24.97;69.26;99990.64;2793695;84;20979;-90
2022/09/09 10:18:37;;;;;;;3.50;1.52;;;;;;;24.92;68.56;99982.61;2765280;84;21110;-90
2022/09/09 10:22:47;;;;;;;3.20;0.90;;;;;;;25.03;68.93;99980.19;2753091;84;21067;-90
2022/09/09 10:27:13;;;;;;;2.25;1.15;;;;;;;25.01;65.86;99976.33;2757658;84;21101;-90
2022/09/09 10:31:32;;;;;;;2.77;0.75;;;;;;;25.03;66.16;99966.59;2748609;85;21055;-90
2022/09/09 10:36:13;;;;;;;1.80;0.95;;;;;;;24.87;64.54;99971.59;2743301;84;21575;-90
2022/09/09 10:40:42;;;;;;;1.30;1.05;;;;;;;24.76;64.84;99969.11;2733126;85;21531;-89
2022/09/09 10:45:07;;;;;;;1.87;0.75;;;;;;;24.84;67.25;99965.25;2743464;85;21086;-91
2022/09/09 10:49:26;;;;;;;1.33;1.10;;;;;;;24.96;62.78;99958.52;2744210;85;21067;-89
2022/09/09 10:53:56;;;;;;;1.12;1.05;;;;;;;25.11;67.02;99947.21;2768019;84;21106;-89
2022/09/09 10:58:00;;;;;;;2.35;0.88;;;;;;;25.17;64.54;99946.31;2735461;84;21037;-90
2022/09/09 11:02:19;;;;;;;3.42;1.27;;;;;;;25.27;65.04;99948.98;2736720;85;21063;-89
2022/09/09 11:06:26;;;;;;;2.08;1.62;;;;;;;25.37;66.82;99947.91;2744393;85;21430;-90
2022/09/09 11:10:52;;;;;;;2.55;1.90;;;;;;;25.39;66.36;99952.59;2755527;84;21019;-88
2022/09/09 11:15:08;;;;;;;3.05;0.60;;;;;;;25.49;66.00;99955.59;2744760;84;21047;-90
2022/09/09 11:19:38;;;;;;;3.17;0.80;;;;;;;25.58;62.16;99950.63;2735919;85;21086;-88
2022/09/09 11:23:48;;;;;;;4.97;1.30;;;;;;;25.74;64.20;99951.84;2709113;86;21101;-90
2022/09/09 11:28:33;;;;;;;0.95;0.60;;;;;;;25.79;64.24;99951.14;2710325;87;21088;-90
2022/09/09 11:32:55;;;;;;;4.40;0.82;;;;;;;25.88;63.12;99948.89;2711908;87;21163;-90
2022/09/09 11:37:23;;;;;;;4.85;0.80;;;;;;;26.00;65.57;99950.27;2681956;86;21005;-89
2022/09/09 11:41:30;;;;;;;0.75;0.37;;;;;;;26.18;64.63;99945.27;2713888;86;21690;-90
2022/09/09 11:45:35;;;;;;;1.57;0.50;;;;;;;26.31;63.12;99945.00;2721611;85;21167;-90
2022/09/09 11:49:42;;;;;;;1.07;0.55;;;;;;;26.30;62.20;99943.89;2697073;87;21099;-89
2022/09/09 11:54:02;;;;;;;1.50;0.53;;;;;;;26.00;60.07;99945.66;2708508;85;21105;-90
2022/09/09 11:58:08;;;;;;;2.58;1.30;;;;;;;25.91;60.55;99945.18;2615748;88;21104;-90
2022/09/09 12:02:26;;;;;;;0.85;0.45;;;;;;;26.01;62.61;99941.86;2645683;88;21123;-89
2022/09/09 12:06:33;;;;;;;2.27;0.45;;;;;;;26.10;62.35;99937.70;2648987;88;21109;-89
2022/09/09 12:10:38;;;;;;;3.05;1.17;;;;;;;26.18;62.89;99933.01;2608905;89;21018;-90
2022/09/09 12:15:05;;;;;;;3.83;1.32;;;;;;;26.21;58.17;99933.89;2656686;88;21565;-90
2022/09/09 12:19:18;;;;;;;1.12;0.40;;;;;;;26.20;59.39;99929.50;2618238;89;21053;-90
2022/09/09 12:23:43;;;;;;;2.42;0.98;;;;;;;26.30;61.25;99928.35;2634770;87;21124;-90
2022/09/09 12:27:53;;;;;;;3.22;0.50;;;;;;;26.37;58.23;99929.06;2656356;88;21150;-91
2022/09/09 12:32:18;;;;;;;1.27;0.60;;;;;;;26.52;60.44;99922.26;2627641;89;21069;-88
2022/09/09 12:36:29;;;;;;;0.95;0.50;;;;;;;26.59;60.15;99923.49;2737713;85;21078;-90
2022/09/09 12:40:35;;;;;;;0.88;0.37;;;;;;;26.63;58.58;99930.95;2759407;84;21054;-89
2022/09/09 12:44:36;;;;;;;1.17;0.82;;;;;;;26.78;63.79;99934.52;2776620;85;21083;-88
2022/09/09 12:48:44;;;;;;;0.80;0.60;;;;;;;26.98;58.47;99923.74;2721676;85;21056;-90
2022/09/09 12:52:47;;;;;;;1.37;0.85;;;;;;;27.01;57.38;99923.80;2763344;84;21073;-90
2022/09/09 12:56:50;;;;;;;1.00;0.50;;;;;;;26.88;57.54;99907.19;2742103;84;21079;-90
2022/09/09 13:00:58;;;;;;;2.30;0.88;;;;;;;26.85;57.46;99911.22;2736723;85;21035;-89
2022/09/09 13:05:16;;;;;;;3.10;1.80;;;;;;;26.79;56.43;99919.00;2741359;85;20992;-91
2022/09/09 13:09:19;;;;;;;0.82;0.45;;;;;;;26.74;57.69;99924.36;2760175;85;21185;-89
2022/09/09 13:13:34;;;;;;;1.50;1.22;;;;;;;26.72;61.10;99916.92;2757184;84;21039;-89
2022/09/09 13:17:35;;;;;;;5.45;3.12;;;;;;;26.55;61.94;99912.78;2757856;84;21044;-88
2022/09/09 13:21:39;;;;;;;1.40;0.93;;;;;;;26.22;63.51;99899.56;2746859;85;21075;-89
2022/09/09 13:25:41;;;;;;;3.83;2.50;;;;;;;26.21;61.48;99882.91;2751795;85;21026;-89
2022/09/09 13:29:48;;;;;;;2.35;1.20;;;;;;;26.30;64.67;99899.73;2719148;86;21098;-89
2022/09/09 13:33:49;;;;;;;1.12;0.80;;;;;;;26.28;59.43;99892.33;2704272;87;21054;-88
2022/09/09 13:37:51;;;;;;;1.45;0.93;;;;;;;26.38;59.13;99892.55;2756673;85;21117;-89
2022/09/09 13:41:53;;;;;;;1.35;1.07;;;;;;;26.38;61.11;99888.47;2738373;85;21022;-89
2022/09/09 13:45:58;;;;;;;1.47;1.00;;;;;;;26.43;59.10;99882.27;2757610;85;21066;-89
2022/09/09 13:50:23;;;;;;;0.53;0.47;;;;;;;26.49;59.50;99876.39;2764909;85;21042;-89
2022/09/09 13:54:24;;;;;;;1.93;1.20;;;;;;;26.55;58.21;99884.98;2750862;85;21018;-89
2022/09/09 13:58:26;;;;;;;1.10;0.70;;;;;;;26.52;59.26;99882.72;2729993;85;22199;-89
2022/09/09 14:02:27;;;;;;;3.00;1.00;;;;;;;26.47;58.32;99879.89;2711047;85;21066;-90
2022/09/09 14:06:29;;;;;;;1.45;0.75;;;;;;;26.43;60.53;99874.64;2766529;84;21066;-87
2022/09/09 14:10:31;;;;;;;3.60;0.90;;;;;;;26.28;60.39;99883.34;2775207;84;21585;-93
2022/09/09 14:14:32;;;;;;;0.93;0.57;;;;;;;26.15;60.08;99884.40;2789911;84;21531;-94
2022/09/09 14:18:33;;;;;;;3.90;2.10;;;;;;;25.99;59.45;99877.24;2781078;84;21023;-91
2022/09/09 14:22:36;;;;;;;4.22;3.50;;;;;;;25.74;61.44;99882.38;2754638;83;21031;-95
2022/09/09 14:26:38;;;;;;;3.80;1.50;;;;;;;25.49;62.16;99876.63;2754356;85;21066;-87
2022/09/09 14:30:41;;;;;;;0.75;0.55;;;;;;;25.30;62.65;99886.77;2785012;83;21676;-90
2022/09/09 14:34:42;;;;;;;2.20;0.90;;;;;;;25.27;63.39;99881.79;2748544;85;21030;-91
2022/09/09 14:38:44;;;;;;;1.80;1.35;;;;;;;25.23;62.87;99880.05;2739188;85;21027;-90
2022/09/09 14:42:45;;;;;;;0.98;0.72;;;;;;;25.15;63.56;99870.84;2764926;85;21129;-89
2022/09/09 14:46:46;;;;;;;1.42;0.88;;;;;;;25.13;64.96;99872.16;2749895;85;21581;-93
2022/09/09 14:50:49;;;;;;;4.10;0.72;;;;;;;25.15;65.47;99884.45;2740483;85;21039;-87
2022/09/09 14:54:50;;;;;;;1.10;0.90;;;;;;;25.20;64.63;99890.05;2743147;85;21099;-88
2022/09/09 14:58:58;;;;;;;2.85;0.50;;;;;;;25.12;69.00;99890.36;2741589;85;21031;-88
2022/09/09 15:02:59;;;;;;;1.55;0.70;;;;;;;24.73;67.47;99885.75;2746589;85;21031;-87
2022/09/09 15:07:00;;;;;;;1.40;0.98;;;;;;;24.39;69.85;99884.30;2737650;85;21537;-87
2022/09/09 15:11:07;;;;;;;1.57;0.72;;;;;;;24.13;68.38;99880.52;2739529;85;21019;-87
2022/09/09 15:15:09;;;;;;;5.05;0.78;;;;;;;23.91;70.66;99878.20;2756929;85;21032;-88
2022/09/09 15:19:11;;;;;;;1.42;1.05;;;;;;;23.71;72.50;99883.84;2752251;84;21023;-88
2022/09/09 15:23:14;;;;;;;2.25;0.80;;;;;;;23.38;73.65;99875.73;2761999;84;21077;-85
2022/09/09 15:27:15;;;;;;;2.10;1.10;;;;;;;23.10;73.96;99877.48;2768082;84;22437;-87
2022/09/09 15:31:23;;;;;;;1.57;0.60;;;;;;;22.92;76.14;99876.33;2775322;83;21030;-86
2022/09/09 15:35:24;;;;;;;3.05;1.20;;;;;;;22.83;75.83;99879.00;2771238;84;21169;-88
2022/09/09 15:39:26;;;;;;;3.12;1.25;;;;;;;22.77;76.64;99883.91;2779133;84;21074;-87
2022/09/09 15:43:27;;;;;;;2.10;1.57;;;;;;;22.76;77.39;99894.45;2781884;84;21090;-88
2022/09/09 15:47:28;;;;;;;1.75;1.20;;;;;;;22.73;78.01;99897.09;2775936;84;21696;-88
2022/09/09 15:51:30;;;;;;;3.70;1.30;;;;;;;22.76;78.51;99903.43;2779463;83;21018;-88
2022/09/09 15:55:31;;;;;;;2.58;1.20;;;;;;;22.76;78.26;99898.01;2778036;84;21434;-89
2022/09/09 15:59:33;;;;;;;2.42;0.60;;;;;;;22.76;76.90;99891.23;2765474;84;21094;-88
2022/09/09 16:03:38;;;;;;;2.77;1.37;;;;;;;22.76;77.61;99894.45;2769139;84;21066;-89
2022/09/09 16:07:42;;;;;;;5.43;0.97;;;;;;;22.69;79.44;99893.13;2774314;84;21515;-89
2022/09/09 16:11:43;;;;;;;2.10;0.82;;;;;;;22.68;80.07;99909.92;2769929;84;21637;-88
2022/09/09 16:15:45;;;;;;;12.28;9.20;;;;;;;22.71;82.59;99919.52;2765956;84;21784;-89
2022/09/09 16:19:47;;;;;;;2.98;1.92;;;;;;;22.58;85.78;99924.45;2776296;84;21589;-87
2022/09/09 16:23:50;;;;;;;3.30;2.00;;;;;;;22.40;88.90;99911.05;2742553;84;21095;-87
2022/09/09 16:27:53;;;;;;;5.87;1.90;;;;;;;22.30;90.75;99891.69;2764232;84;21035;-87
2022/09/09 16:31:55;;;;;;;3.12;1.57;;;;;;;22.06;89.16;99873.73;2717047;85;21042;-86
2022/09/09 16:35:57;;;;;;;10.10;2.08;;;;;;;21.85;90.99;99864.52;2755077;85;21027;-86
2022/09/09 16:39:58;;;;;;;1.70;1.07;;;;;;;21.65;90.77;99868.89;2736388;85;21393;-85
2022/09/09 16:44:03;;;;;;;2.70;1.15;;;;;;;21.58;91.26;99880.73;2742847;85;21026;-85
2022/09/09 16:48:05;;;;;;;3.42;1.22;;;;;;;21.57;91.61;99885.83;2741957;85;21007;-85
2022/09/09 16:52:06;;;;;;;12.75;1.50;;;;;;;21.61;91.81;99885.20;2738879;85;21066;-85
2022/09/09 16:56:10;;;;;;;5.55;1.75;;;;;;;21.61;91.25;99885.71;2736385;85;21071;-86
2022/09/09 17:00:14;;;;;;;3.15;2.50;;;;;;;21.52;94.86;99881.88;2745475;85;21661;-86
2022/09/09 17:04:23;;;;;;;5.78;1.90;;;;;;;21.38;95.06;99884.26;2748286;85;21000;-86
2022/09/09 17:08:25;;;;;;;1.80;1.07;;;;;;;21.40;95.88;99894.34;2742235;85;21047;-85
2022/09/09 17:12:26;;;;;;;4.20;1.72;;;;;;;21.39;96.84;99892.69;2750434;83;21094;-86
2022/09/09 17:16:31;;;;;;;3.98;2.10;;;;;;;21.36;97.37;99895.81;2750698;85;21508;-86
2022/09/09 17:20:39;;;;;;;6.80;1.50;;;;;;;21.27;98.88;99895.17;2739390;84;21066;-86
2022/09/09 17:24:41;;;;;;;2.95;1.65;;;;;;;21.19;100.00;99901.61;2743371;84;21342;-87
2022/09/09 17:28:44;;;;;;;2.08;1.52;;;;;;;21.16;100.00;99902.55;2739295;85;21063;-87
2022/09/09 17:32:46;;;;;;;2.98;1.50;;;;;;;21.23;100.00;99904.23;2737700;85;21095;-86
2022/09/09 17:36:48;;;;;;;3.10;1.55;;;;;;;21.30;100.00;99902.87;2740847;85;21072;-86
2022/09/09 17:40:50;;;;;;;3.20;2.00;;;;;;;21.31;100.00;99909.94;2729203;85;21540;-86
2022/09/09 17:44:52;;;;;;;3.72;2.52;;;;;;;21.32;100.00;99916.20;2741590;85;21039;-86
2022/09/09 17:48:58;;;;;;;5.95;2.52;;;;;;;21.37;100.00;99910.49;2712704;85;21103;-86
2022/09/09 17:52:59;;;;;;;8.70;4.17;;;;;;;21.45;99.85;99909.97;2738286;85;20968;-86
2022/09/09 17:57:01;;;;;;;25.70;15.58;;;;;;;21.44;100.00;99896.98;2738203;85;21040;-85
2022/09/09 18:01:09;;;;;;;12.65;4.85;;;;;;;21.47;100.00;99896.56;2738417;85;21103;-87
2022/09/09 18:05:11;;;;;;;15.35;7.92;;;;;;;21.52;99.82;99905.41;2740920;85;20979;-85
2022/09/09 18:09:22;;;;;;;15.98;9.15;;;;;;;21.51;99.47;99904.56;2720138;85;21055;-86
2022/09/09 18:13:23;;;;;;;15.78;11.85;;;;;;;21.39;100.00;99914.33;2720448;85;21046;-86
2022/09/09 18:17:26;;;;;;;27.07;12.68;;;;;;;21.38;100.00;99923.48;2742377;85;21020;-85
2022/09/09 18:21:32;;;;;;;14.05;9.48;;;;;;;21.34;99.69;99921.73;2740650;85;21056;-86
2022/09/09 18:25:40;;;;;;;8.53;6.17;;;;;;;21.28;100.00;99927.94;2738715;85;21047;-86
2022/09/09 18:29:42;;;;;;;9.00;6.60;;;;;;;21.23;100.00;99933.98;2742273;85;21496;-86
2022/09/09 18:33:46;;;;;;;11.22;4.80;;;;;;;21.24;100.00;99934.30;2705126;85;21078;-85
2022/09/09 18:37:47;;;;;;;6.25;4.45;;;;;;;21.30;100.00;99935.86;2704380;85;21404;-86
2022/09/09 18:41:54;;;;;;;5.15;2.58;;;;;;;21.33;100.00;99940.35;2738216;85;21462;-86
2022/09/09 18:45:59;;;;;;;3.75;3.33;;;;;;;21.13;100.00;99947.05;2741209;85;21054;-86
2022/09/09 18:50:00;;;;;;;7.90;3.87;;;;;;;20.91;100.00;99948.55;2740812;85;21043;-88
2022/09/09 18:54:09;;;;;;;5.10;3.25;;;;;;;20.63;100.00;99949.95;2740159;85;21016;-86
2022/09/09 18:58:12;;;;;;;5.53;3.60;;;;;;;20.56;100.00;99953.97;2728835;85;21047;-85
2022/09/09 19:02:14;;;;;;;5.95;4.28;;;;;;;20.54;100.00;99959.59;2744527;85;21093;-86
2022/09/09 19:06:22;;;;;;;7.83;4.10;;;;;;;20.50;100.00;99958.83;2740590;85;21071;-85
2022/09/09 19:10:24;;;;;;;4.97;4.17;;;;;;;20.53;100.00;99955.19;2736988;85;21075;-86
2022/09/09 19:14:26;;;;;;;6.78;4.50;;;;;;;20.52;100.00;99954.87;2726824;85;21019;-86